sensor_id;sensor_type;location;lat;lon;timestamp;pressure;altitude;pressure_sealevel;temperature;humidity
11339;BME280;5724;42.684;23.252;2022-10-31T00:01:57;94837.97;;;13.21;58.35
11339;BME280;5724;42.684;23.252;2022-10-31T00:04:23;94833.84;;;13.11;58.55
11339;BME280;5724;42.684;23.252;2022-10-31T00:06:48;94832.78;;;12.96;59.31
11339;BME280;5724;42.684;23.252;2022-10-31T00:09:15;94835.53;;;12.96;59.48
11339;BME280;5724;42.684;23.252;2022-10-31T00:11:40;94835.94;;;12.98;59.30
11339;BME280;5724;42.684;23.252;2022-10-31T00:14:06;94842.66;;;13.01;59.29
11339;BME280;5724;42.684;23.252;2022-10-31T00:16:31;94839.13;;;13.00;59.43
11339;BME280;5724;42.684;23.252;2022-10-31T00:19:03;94831.31;;;13.02;59.48
11339;BME280;5724;42.684;23.252;2022-10-31T00:21:30;94844.31;;;13.05;59.44
11339;BME280;5724;42.684;23.252;2022-10-31T00:23:57;94833.78;;;13.07;59.12
11339;BME280;5724;42.684;23.252;2022-10-31T00:26:24;94845.59;;;13.11;59.38
11339;BME280;5724;42.684;23.252;2022-10-31T00:28:49;94822.06;;;13.10;59.17
11339;BME280;5724;42.684;23.252;2022-10-31T00:31:16;94831.03;;;13.27;59.11
11339;BME280;5724;42.684;23.252;2022-10-31T00:33:42;94825.41;;;13.20;59.07
11339;BME280;5724;42.684;23.252;2022-10-31T00:36:11;94823.78;;;13.18;59.24
11339;BME280;5724;42.684;23.252;2022-10-31T00:38:37;94831.97;;;13.15;59.54
11339;BME280;5724;42.684;23.252;2022-10-31T00:41:04;94821.28;;;13.10;59.60
11339;BME280;5724;42.684;23.252;2022-10-31T00:43:29;94815.09;;;13.13;59.65
11339;BME280;5724;42.684;23.252;2022-10-31T00:45:54;94820.06;;;13.07;59.70
11339;BME280;5724;42.684;23.252;2022-10-31T00:48:20;94828.28;;;13.07;59.83
11339;BME280;5724;42.684;23.252;2022-10-31T00:50:45;94817.84;;;13.13;59.48
11339;BME280;5724;42.684;23.252;2022-10-31T00:53:11;94818.13;;;13.08;59.80
11339;BME280;5724;42.684;23.252;2022-10-31T00:55:36;94802.75;;;13.03;59.83
11339;BME280;5724;42.684;23.252;2022-10-31T00:58:02;94818.97;;;13.12;59.99
11339;BME280;5724;42.684;23.252;2022-10-31T01:00:27;94826.06;;;13.13;60.14
11339;BME280;5724;42.684;23.252;2022-10-31T01:02:53;94825.97;;;13.09;60.16
11339;BME280;5724;42.684;23.252;2022-10-31T01:05:18;94822.28;;;13.02;60.60
11339;BME280;5724;42.684;23.252;2022-10-31T01:07:44;94829.03;;;13.04;60.48
11339;BME280;5724;42.684;23.252;2022-10-31T01:10:10;94830.66;;;13.09;60.45
11339;BME280;5724;42.684;23.252;2022-10-31T01:12:46;94829.72;;;13.01;60.94
11339;BME280;5724;42.684;23.252;2022-10-31T01:15:14;94826.50;;;12.96;61.08
11339;BME280;5724;42.684;23.252;2022-10-31T01:17:40;94826.78;;;12.90;61.49
11339;BME280;5724;42.684;23.252;2022-10-31T01:20:07;94834.00;;;12.99;61.47
11339;BME280;5724;42.684;23.252;2022-10-31T01:22:33;94848.66;;;13.06;61.86
11339;BME280;5724;42.684;23.252;2022-10-31T01:24:58;94837.63;;;13.03;62.51
11339;BME280;5724;42.684;23.252;2022-10-31T01:27:24;94844.38;;;13.09;62.36
11339;BME280;5724;42.684;23.252;2022-10-31T01:29:49;94838.06;;;13.05;62.57
11339;BME280;5724;42.684;23.252;2022-10-31T01:32:15;94839.53;;;13.02;62.78
11339;BME280;5724;42.684;23.252;2022-10-31T01:34:40;94832.19;;;13.06;63.05
11339;BME280;5724;42.684;23.252;2022-10-31T01:37:05;94823.34;;;12.94;63.17
11339;BME280;5724;42.684;23.252;2022-10-31T01:39:31;94792.09;;;12.79;62.97
11339;BME280;5724;42.684;23.252;2022-10-31T01:41:56;94804.69;;;12.83;62.44
11339;BME280;5724;42.684;23.252;2022-10-31T01:46:53;94845.19;;;13.09;62.64
11339;BME280;5724;42.684;23.252;2022-10-31T01:49:38;94838.97;;;13.12;62.52
11339;BME280;5724;42.684;23.252;2022-10-31T01:55:06;94842.53;;;13.13;62.58
11339;BME280;5724;42.684;23.252;2022-10-31T01:57:34;94854.56;;;13.08;62.82
11339;BME280;5724;42.684;23.252;2022-10-31T02:00:05;94848.34;;;13.11;63.04
11339;BME280;5724;42.684;23.252;2022-10-31T02:02:31;94840.19;;;13.15;63.20
11339;BME280;5724;42.684;23.252;2022-10-31T02:04:59;94846.50;;;12.96;63.84
11339;BME280;5724;42.684;23.252;2022-10-31T02:07:48;94837.84;;;12.94;64.18
11339;BME280;5724;42.684;23.252;2022-10-31T02:10:20;94837.47;;;12.96;64.28
11339;BME280;5724;42.684;23.252;2022-10-31T02:12:46;94848.81;;;12.94;64.46
11339;BME280;5724;42.684;23.252;2022-10-31T02:15:12;94824.91;;;12.95;64.29
11339;BME280;5724;42.684;23.252;2022-10-31T02:17:38;94824.97;;;12.98;64.03
11339;BME280;5724;42.684;23.252;2022-10-31T02:25:46;94838.53;;;13.10;63.96
11339;BME280;5724;42.684;23.252;2022-10-31T02:41:21;94855.16;;;12.79;65.80
11339;BME280;5724;42.684;23.252;2022-10-31T02:44:16;94858.88;;;12.71;66.29
11339;BME280;5724;42.684;23.252;2022-10-31T02:46:48;94858.03;;;12.67;66.76
11339;BME280;5724;42.684;23.252;2022-10-31T02:49:26;94869.00;;;12.67;66.98
11339;BME280;5724;42.684;23.252;2022-10-31T02:51:53;94856.88;;;12.68;67.19
11339;BME280;5724;42.684;23.252;2022-10-31T02:54:22;94857.94;;;12.63;67.16
11339;BME280;5724;42.684;23.252;2022-10-31T02:56:49;94862.25;;;12.64;67.01
11339;BME280;5724;42.684;23.252;2022-10-31T02:59:16;94862.25;;;12.64;67.05
11339;BME280;5724;42.684;23.252;2022-10-31T03:02:06;94868.41;;;12.57;67.64
11339;BME280;5724;42.684;23.252;2022-10-31T03:04:53;94862.63;;;12.63;67.70
11339;BME280;5724;42.684;23.252;2022-10-31T03:10:22;94868.91;;;12.63;67.44
11339;BME280;5724;42.684;23.252;2022-10-31T03:13:00;94876.06;;;12.68;67.31
11339;BME280;5724;42.684;23.252;2022-10-31T03:15:36;94863.94;;;12.69;67.35
11339;BME280;5724;42.684;23.252;2022-10-31T03:18:04;94864.00;;;12.72;67.28
11339;BME280;5724;42.684;23.252;2022-10-31T03:20:49;94869.94;;;12.74;66.78
11339;BME280;5724;42.684;23.252;2022-10-31T03:23:18;94872.41;;;12.79;66.72
11339;BME280;5724;42.684;23.252;2022-10-31T03:25:45;94866.47;;;12.77;66.89
11339;BME280;5724;42.684;23.252;2022-10-31T03:28:13;94873.56;;;12.78;66.91
11339;BME280;5724;42.684;23.252;2022-10-31T03:30:43;94874.59;;;12.74;66.93
11339;BME280;5724;42.684;23.252;2022-10-31T03:33:13;94875.06;;;12.76;66.91
11339;BME280;5724;42.684;23.252;2022-10-31T03:35:42;94882.13;;;12.77;67.06
11339;BME280;5724;42.684;23.252;2022-10-31T03:38:11;94880.09;;;12.74;67.35
11339;BME280;5724;42.684;23.252;2022-10-31T03:40:38;94885.88;;;12.69;67.32
11339;BME280;5724;42.684;23.252;2022-10-31T03:43:09;94880.16;;;12.58;67.60
11339;BME280;5724;42.684;23.252;2022-10-31T03:45:39;94891.75;;;12.51;68.20
11339;BME280;5724;42.684;23.252;2022-10-31T03:48:06;94886.28;;;12.51;68.40
11339;BME280;5724;42.684;23.252;2022-10-31T03:50:43;94881.78;;;12.43;68.78
11339;BME280;5724;42.684;23.252;2022-10-31T03:53:24;94891.94;;;12.43;68.76
11339;BME280;5724;42.684;23.252;2022-10-31T03:55:57;94891.09;;;12.39;68.95
11339;BME280;5724;42.684;23.252;2022-10-31T03:59:04;94894.31;;;12.44;68.72
11339;BME280;5724;42.684;23.252;2022-10-31T04:01:22;94902.03;;;12.39;68.94
11339;BME280;5724;42.684;23.252;2022-10-31T04:03:49;94899.72;;;12.41;68.81
11339;BME280;5724;42.684;23.252;2022-10-31T04:06:16;94900.59;;;12.45;68.55
11339;BME280;5724;42.684;23.252;2022-10-31T04:08:49;94901.56;;;12.52;68.46
11339;BME280;5724;42.684;23.252;2022-10-31T04:11:18;94899.25;;;12.54;68.50
11339;BME280;5724;42.684;23.252;2022-10-31T04:13:47;94903.28;;;12.41;68.61
11339;BME280;5724;42.684;23.252;2022-10-31T04:16:14;94902.66;;;12.32;69.28
11339;BME280;5724;42.684;23.252;2022-10-31T04:18:40;94901.56;;;12.17;69.80
11339;BME280;5724;42.684;23.252;2022-10-31T04:21:07;94910.03;;;12.28;69.53
11339;BME280;5724;42.684;23.252;2022-10-31T04:23:35;94903.38;;;12.29;69.54
11339;BME280;5724;42.684;23.252;2022-10-31T04:26:00;94896.16;;;12.21;69.41
11339;BME280;5724;42.684;23.252;2022-10-31T04:28:26;94897.72;;;12.22;69.74
11339;BME280;5724;42.684;23.252;2022-10-31T04:30:51;94909.06;;;12.20;69.77
11339;BME280;5724;42.684;23.252;2022-10-31T04:33:17;94908.25;;;12.20;70.01
11339;BME280;5724;42.684;23.252;2022-10-31T04:35:43;94907.03;;;12.17;70.03
11339;BME280;5724;42.684;23.252;2022-10-31T04:38:09;94910.47;;;12.14;70.54
11339;BME280;5724;42.684;23.252;2022-10-31T04:40:34;94909.31;;;12.15;70.42
11339;BME280;5724;42.684;23.252;2022-10-31T04:42:59;94908.34;;;12.08;70.98
11339;BME280;5724;42.684;23.252;2022-10-31T04:45:25;94914.88;;;12.19;70.38
11339;BME280;5724;42.684;23.252;2022-10-31T04:47:50;94908.44;;;12.27;70.03
11339;BME280;5724;42.684;23.252;2022-10-31T04:50:16;94906.13;;;12.29;69.94
11339;BME280;5724;42.684;23.252;2022-10-31T04:52:42;94913.63;;;12.32;70.12
11339;BME280;5724;42.684;23.252;2022-10-31T04:55:09;94909.38;;;12.35;69.82
11339;BME280;5724;42.684;23.252;2022-10-31T05:00:08;94916.25;;;12.44;70.32
11339;BME280;5724;42.684;23.252;2022-10-31T05:02:33;94924.66;;;12.51;70.14
11339;BME280;5724;42.684;23.252;2022-10-31T05:04:59;94916.94;;;12.57;70.07
11339;BME280;5724;42.684;23.252;2022-10-31T05:07:25;94927.13;;;12.56;70.10
11339;BME280;5724;42.684;23.252;2022-10-31T05:09:50;94929.94;;;12.44;71.01
11339;BME280;5724;42.684;23.252;2022-10-31T05:12:16;94931.03;;;12.40;71.01
11339;BME280;5724;42.684;23.252;2022-10-31T05:14:41;94931.50;;;12.26;71.94
11339;BME280;5724;42.684;23.252;2022-10-31T05:17:06;94933.09;;;12.27;72.07
11339;BME280;5724;42.684;23.252;2022-10-31T05:19:32;94939.78;;;12.14;72.66
11339;BME280;5724;42.684;23.252;2022-10-31T05:21:57;94940.59;;;12.30;72.36
11339;BME280;5724;42.684;23.252;2022-10-31T05:24:23;94935.22;;;12.18;72.63
11339;BME280;5724;42.684;23.252;2022-10-31T05:26:49;94945.63;;;12.12;73.20
11339;BME280;5724;42.684;23.252;2022-10-31T05:29:14;94937.50;;;12.00;73.99
11339;BME280;5724;42.684;23.252;2022-10-31T05:31:39;94944.22;;;12.02;73.71
11339;BME280;5724;42.684;23.252;2022-10-31T05:34:05;94952.34;;;11.99;74.07
11339;BME280;5724;42.684;23.252;2022-10-31T05:36:30;94943.59;;;12.09;73.80
11339;BME280;5724;42.684;23.252;2022-10-31T05:38:56;94960.22;;;12.16;73.29
11339;BME280;5724;42.684;23.252;2022-10-31T05:41:21;94954.09;;;12.23;73.32
11339;BME280;5724;42.684;23.252;2022-10-31T05:43:47;94956.16;;;12.26;73.22
11339;BME280;5724;42.684;23.252;2022-10-31T05:46:12;94952.50;;;12.06;73.31
11339;BME280;5724;42.684;23.252;2022-10-31T05:48:38;94962.03;;;11.96;73.79
11339;BME280;5724;42.684;23.252;2022-10-31T05:51:03;94963.94;;;12.08;73.75
11339;BME280;5724;42.684;23.252;2022-10-31T05:53:28;94956.31;;;12.01;73.96
11339;BME280;5724;42.684;23.252;2022-10-31T05:55:54;94958.53;;;12.12;74.00
11339;BME280;5724;42.684;23.252;2022-10-31T05:58:19;94970.38;;;12.16;73.98
11339;BME280;5724;42.684;23.252;2022-10-31T06:00:45;94962.75;;;12.25;73.61
11339;BME280;5724;42.684;23.252;2022-10-31T06:03:10;94965.16;;;12.42;73.24
11339;BME280;5724;42.684;23.252;2022-10-31T06:05:35;94973.91;;;12.32;73.68
11339;BME280;5724;42.684;23.252;2022-10-31T06:08:01;94973.09;;;12.16;74.52
11339;BME280;5724;42.684;23.252;2022-10-31T06:10:27;94979.19;;;12.25;74.46
11339;BME280;5724;42.684;23.252;2022-10-31T06:12:53;94972.94;;;12.56;73.81
11339;BME280;5724;42.684;23.252;2022-10-31T06:15:18;94990.59;;;12.74;73.12
11339;BME280;5724;42.684;23.252;2022-10-31T06:17:44;94990.03;;;12.84;72.78
11339;BME280;5724;42.684;23.252;2022-10-31T06:20:10;94984.63;;;12.88;72.48
11339;BME280;5724;42.684;23.252;2022-10-31T06:22:36;94989.63;;;13.02;71.22
11339;BME280;5724;42.684;23.252;2022-10-31T06:25:02;94983.00;;;12.68;71.50
11339;BME280;5724;42.684;23.252;2022-10-31T06:27:28;94992.63;;;12.61;71.94
11339;BME280;5724;42.684;23.252;2022-10-31T06:29:53;94991.38;;;12.75;71.84
11339;BME280;5724;42.684;23.252;2022-10-31T06:32:19;94996.75;;;12.87;71.43
11339;BME280;5724;42.684;23.252;2022-10-31T06:34:45;95007.75;;;13.06;71.23
11339;BME280;5724;42.684;23.252;2022-10-31T06:37:13;95001.97;;;13.27;70.44
11339;BME280;5724;42.684;23.252;2022-10-31T06:39:39;95005.53;;;13.47;69.85
11339;BME280;5724;42.684;23.252;2022-10-31T06:42:05;95005.69;;;13.54;69.56
11339;BME280;5724;42.684;23.252;2022-10-31T06:44:30;95011.06;;;13.70;68.80
11339;BME280;5724;42.684;23.252;2022-10-31T06:46:56;95016.09;;;13.64;69.11
11339;BME280;5724;42.684;23.252;2022-10-31T06:49:22;95016.34;;;13.79;68.20
11339;BME280;5724;42.684;23.252;2022-10-31T06:51:48;95012.38;;;13.95;67.23
11339;BME280;5724;42.684;23.252;2022-10-31T06:54:14;95014.88;;;14.04;67.05
11339;BME280;5724;42.684;23.252;2022-10-31T06:56:40;95008.84;;;14.18;66.38
11339;BME280;5724;42.684;23.252;2022-10-31T06:59:06;95016.63;;;14.35;66.01
11339;BME280;5724;42.684;23.252;2022-10-31T07:01:31;95012.66;;;14.32;65.37
11339;BME280;5724;42.684;23.252;2022-10-31T07:03:57;95018.88;;;14.29;65.17
11339;BME280;5724;42.684;23.252;2022-10-31T07:06:22;95023.28;;;13.92;66.87
11339;BME280;5724;42.684;23.252;2022-10-31T07:08:48;95010.56;;;14.03;66.13
11339;BME280;5724;42.684;23.252;2022-10-31T07:11:14;95018.00;;;14.45;65.29
11339;BME280;5724;42.684;23.252;2022-10-31T07:13:39;95016.34;;;14.63;64.54
11339;BME280;5724;42.684;23.252;2022-10-31T07:16:05;95029.88;;;14.75;64.17
11339;BME280;5724;42.684;23.252;2022-10-31T07:18:32;95026.06;;;14.15;66.06
11339;BME280;5724;42.684;23.252;2022-10-31T07:20:58;95012.56;;;14.06;66.54
11339;BME280;5724;42.684;23.252;2022-10-31T07:23:23;95014.53;;;14.48;65.58
11339;BME280;5724;42.684;23.252;2022-10-31T07:25:54;95010.09;;;14.66;65.24
11339;BME280;5724;42.684;23.252;2022-10-31T07:28:24;95015.50;;;14.59;65.66
11339;BME280;5724;42.684;23.252;2022-10-31T07:30:53;95009.41;;;14.73;65.32
11339;BME280;5724;42.684;23.252;2022-10-31T07:33:19;94996.69;;;14.87;64.40
11339;BME280;5724;42.684;23.252;2022-10-31T07:35:45;94991.91;;;15.11;64.09
11339;BME280;5724;42.684;23.252;2022-10-31T07:38:12;95004.78;;;15.33;63.59
11339;BME280;5724;42.684;23.252;2022-10-31T07:40:39;94998.88;;;15.31;63.40
11339;BME280;5724;42.684;23.252;2022-10-31T07:43:05;94993.97;;;15.48;62.55
11339;BME280;5724;42.684;23.252;2022-10-31T07:45:30;94994.91;;;15.59;62.05
11339;BME280;5724;42.684;23.252;2022-10-31T07:47:56;94996.34;;;15.76;61.33
11339;BME280;5724;42.684;23.252;2022-10-31T07:50:27;95003.63;;;15.61;61.96
11339;BME280;5724;42.684;23.252;2022-10-31T07:55:27;94993.97;;;15.74;61.90
11339;BME280;5724;42.684;23.252;2022-10-31T07:58:00;94992.34;;;15.43;62.20
11339;BME280;5724;42.684;23.252;2022-10-31T08:00:26;95003.72;;;15.68;62.29
11339;BME280;5724;42.684;23.252;2022-10-31T08:02:59;95001.97;;;15.86;61.89
11339;BME280;5724;42.684;23.252;2022-10-31T08:05:25;94995.28;;;15.87;61.73
11339;BME280;5724;42.684;23.252;2022-10-31T08:07:52;94998.19;;;16.01;61.32
11339;BME280;5724;42.684;23.252;2022-10-31T08:10:17;94993.66;;;16.20;61.00
11339;BME280;5724;42.684;23.252;2022-10-31T08:12:43;94999.53;;;15.81;61.52
11339;BME280;5724;42.684;23.252;2022-10-31T08:15:09;94991.31;;;15.85;62.11
11339;BME280;5724;42.684;23.252;2022-10-31T08:17:35;94995.06;;;15.69;62.55
11339;BME280;5724;42.684;23.252;2022-10-31T08:20:01;95000.13;;;15.97;62.12
11339;BME280;5724;42.684;23.252;2022-10-31T08:22:26;94995.09;;;16.07;61.15
11339;BME280;5724;42.684;23.252;2022-10-31T08:24:52;95003.09;;;16.19;60.85
11339;BME280;5724;42.684;23.252;2022-10-31T08:27:17;95005.44;;;16.17;61.36
11339;BME280;5724;42.684;23.252;2022-10-31T08:29:42;94999.94;;;16.17;61.57
11339;BME280;5724;42.684;23.252;2022-10-31T08:32:08;95001.47;;;16.55;60.40
11339;BME280;5724;42.684;23.252;2022-10-31T08:34:33;94999.31;;;16.34;61.05
11339;BME280;5724;42.684;23.252;2022-10-31T08:36:59;95004.81;;;16.71;60.46
11339;BME280;5724;42.684;23.252;2022-10-31T08:39:24;95006.28;;;16.65;60.42
11339;BME280;5724;42.684;23.252;2022-10-31T08:41:50;95006.41;;;16.76;60.44
11339;BME280;5724;42.684;23.252;2022-10-31T08:44:15;95007.41;;;17.01;59.47
11339;BME280;5724;42.684;23.252;2022-10-31T08:46:41;95007.41;;;17.01;59.50
11339;BME280;5724;42.684;23.252;2022-10-31T08:49:06;94997.72;;;17.29;58.72
11339;BME280;5724;42.684;23.252;2022-10-31T08:51:32;95004.50;;;17.45;57.68
11339;BME280;5724;42.684;23.252;2022-10-31T08:53:57;95006.97;;;17.65;58.11
11339;BME280;5724;42.684;23.252;2022-10-31T08:56:23;95007.91;;;17.87;57.18
11339;BME280;5724;42.684;23.252;2022-10-31T08:58:50;94996.09;;;17.97;57.15
11339;BME280;5724;42.684;23.252;2022-10-31T09:01:16;94999.28;;;18.06;56.75
11339;BME280;5724;42.684;23.252;2022-10-31T09:03:41;95007.91;;;17.94;56.79
11339;BME280;5724;42.684;23.252;2022-10-31T09:06:07;95010.97;;;17.74;57.29
11339;BME280;5724;42.684;23.252;2022-10-31T09:08:34;95007.56;;;18.10;56.49
11339;BME280;5724;42.684;23.252;2022-10-31T09:11:00;95015.00;;;17.95;56.37
11339;BME280;5724;42.684;23.252;2022-10-31T09:13:26;94994.16;;;17.28;57.77
11339;BME280;5724;42.684;23.252;2022-10-31T09:15:51;94984.75;;;17.40;58.12
11339;BME280;5724;42.684;23.252;2022-10-31T09:18:20;94992.78;;;17.66;57.40
11339;BME280;5724;42.684;23.252;2022-10-31T09:20:47;95001.53;;;17.83;57.46
11339;BME280;5724;42.684;23.252;2022-10-31T09:23:16;95006.34;;;18.00;55.89
11339;BME280;5724;42.684;23.252;2022-10-31T09:25:42;94988.16;;;17.92;56.14
11339;BME280;5724;42.684;23.252;2022-10-31T09:28:15;94992.56;;;18.11;56.38
11339;BME280;5724;42.684;23.252;2022-10-31T09:30:41;94997.72;;;18.16;56.02
11339;BME280;5724;42.684;23.252;2022-10-31T09:33:10;94993.03;;;18.45;54.66
11339;BME280;5724;42.684;23.252;2022-10-31T09:35:36;94997.00;;;18.54;55.10
11339;BME280;5724;42.684;23.252;2022-10-31T09:38:04;94993.03;;;18.55;54.86
11339;BME280;5724;42.684;23.252;2022-10-31T09:40:39;94989.84;;;18.43;55.45
11339;BME280;5724;42.684;23.252;2022-10-31T09:51:11;94987.50;;;19.09;51.71
11339;BME280;5724;42.684;23.252;2022-10-31T09:54:08;94991.41;;;19.51;51.12
11339;BME280;5724;42.684;23.252;2022-10-31T09:56:36;94987.41;;;19.73;50.16
11339;BME280;5724;42.684;23.252;2022-10-31T09:59:05;94979.78;;;19.88;50.12
11339;BME280;5724;42.684;23.252;2022-10-31T10:01:55;94976.53;;;20.07;48.73
11339;BME280;5724;42.684;23.252;2022-10-31T10:04:43;94974.47;;;20.22;48.52
11339;BME280;5724;42.684;23.252;2022-10-31T10:10:00;94965.63;;;20.41;48.17
11339;BME280;5724;42.684;23.252;2022-10-31T10:20:41;94959.13;;;21.14;44.89
11339;BME280;5724;42.684;23.252;2022-10-31T10:26:02;94930.25;;;21.04;43.66
11339;BME280;5724;42.684;23.252;2022-10-31T10:28:37;94951.59;;;21.11;44.37
11339;BME280;5724;42.684;23.252;2022-10-31T10:31:38;94950.72;;;21.21;43.78
11339;BME280;5724;42.684;23.252;2022-10-31T10:34:18;94946.59;;;20.95;44.09
11339;BME280;5724;42.684;23.252;2022-10-31T10:36:53;94937.44;;;21.39;43.43
11339;BME280;5724;42.684;23.252;2022-10-31T10:39:24;94935.97;;;21.65;42.79
11339;BME280;5724;42.684;23.252;2022-10-31T10:41:51;94937.53;;;21.66;43.46
11339;BME280;5724;42.684;23.252;2022-10-31T10:44:40;94933.09;;;21.73;42.99
11339;BME280;5724;42.684;23.252;2022-10-31T10:47:38;94933.00;;;21.80;42.77
11339;BME280;5724;42.684;23.252;2022-10-31T10:53:01;94915.63;;;22.03;43.16
11339;BME280;5724;42.684;23.252;2022-10-31T10:55:43;94924.16;;;22.19;41.98
11339;BME280;5724;42.684;23.252;2022-10-31T10:58:13;94925.41;;;21.84;42.12
11339;BME280;5724;42.684;23.252;2022-10-31T11:00:44;94921.53;;;22.05;41.95
11339;BME280;5724;42.684;23.252;2022-10-31T11:03:15;94924.50;;;22.48;41.56
11339;BME280;5724;42.684;23.252;2022-10-31T11:05:47;94927.56;;;22.57;41.30
11339;BME280;5724;42.684;23.252;2022-10-31T11:08:33;94895.53;;;22.18;41.55
11339;BME280;5724;42.684;23.252;2022-10-31T11:13:33;94915.16;;;22.89;40.41
11339;BME280;5724;42.684;23.252;2022-10-31T11:16:09;94916.72;;;22.90;40.16
11339;BME280;5724;42.684;23.252;2022-10-31T11:18:43;94916.19;;;22.71;39.66
11339;BME280;5724;42.684;23.252;2022-10-31T11:21:29;94908.81;;;22.61;39.72
11339;BME280;5724;42.684;23.252;2022-10-31T11:26:32;94907.53;;;22.39;40.10
11339;BME280;5724;42.684;23.252;2022-10-31T11:29:00;94901.41;;;22.51;39.85
11339;BME280;5724;42.684;23.252;2022-10-31T11:31:28;94898.72;;;22.44;39.88
11339;BME280;5724;42.684;23.252;2022-10-31T11:34:00;94901.06;;;22.72;39.91
11339;BME280;5724;42.684;23.252;2022-10-31T11:38:54;94894.09;;;22.61;39.53
11339;BME280;5724;42.684;23.252;2022-10-31T11:41:26;94903.16;;;22.92;39.27
11339;BME280;5724;42.684;23.252;2022-10-31T11:43:58;94896.03;;;22.64;39.53
11339;BME280;5724;42.684;23.252;2022-10-31T11:49:01;94888.78;;;22.93;38.73
11339;BME280;5724;42.684;23.252;2022-10-31T11:51:30;94883.34;;;22.36;39.78
11339;BME280;5724;42.684;23.252;2022-10-31T11:53:58;94881.06;;;22.31;40.08
11339;BME280;5724;42.684;23.252;2022-10-31T11:56:24;94881.06;;;22.77;39.42
11339;BME280;5724;42.684;23.252;2022-10-31T11:59:03;94874.66;;;22.80;39.29
11339;BME280;5724;42.684;23.252;2022-10-31T12:01:31;94877.44;;;23.04;39.43
11339;BME280;5724;42.684;23.252;2022-10-31T12:04:10;94871.88;;;23.04;38.65
11339;BME280;5724;42.684;23.252;2022-10-31T12:06:40;94869.94;;;23.01;38.66
11339;BME280;5724;42.684;23.252;2022-10-31T12:09:20;94874.03;;;23.16;39.03
11339;BME280;5724;42.684;23.252;2022-10-31T12:17:36;94866.06;;;22.95;39.28
11339;BME280;5724;42.684;23.252;2022-10-31T12:20:44;94868.41;;;22.49;40.08
11339;BME280;5724;42.684;23.252;2022-10-31T12:34:41;94854.16;;;23.34;39.03
11339;BME280;5724;42.684;23.252;2022-10-31T12:50:50;94856.78;;;23.01;39.17
11339;BME280;5724;42.684;23.252;2022-10-31T12:53:38;94865.69;;;22.93;39.11
11339;BME280;5724;42.684;23.252;2022-10-31T12:56:50;94867.84;;;23.05;39.00
11339;BME280;5724;42.684;23.252;2022-10-31T12:59:27;94854.16;;;23.14;39.21
11339;BME280;5724;42.684;23.252;2022-10-31T13:04:55;94857.91;;;23.47;39.10
11339;BME280;5724;42.684;23.252;2022-10-31T13:07:28;94829.94;;;23.31;38.92
11339;BME280;5724;42.684;23.252;2022-10-31T13:10:02;94858.06;;;23.60;39.04
11339;BME280;5724;42.684;23.252;2022-10-31T13:12:32;94854.97;;;23.74;38.54
11339;BME280;5724;42.684;23.252;2022-10-31T13:15:21;94863.81;;;23.89;38.57
11339;BME280;5724;42.684;23.252;2022-10-31T13:17:51;94851.19;;;24.01;37.70
11339;BME280;5724;42.684;23.252;2022-10-31T13:20:28;94852.41;;;23.99;37.63
11339;BME280;5724;42.684;23.252;2022-10-31T13:23:27;94847.84;;;23.89;37.92
11339;BME280;5724;42.684;23.252;2022-10-31T13:25:56;94855.25;;;23.80;38.18
11339;BME280;5724;42.684;23.252;2022-10-31T13:28:40;94850.44;;;23.80;38.26
11339;BME280;5724;42.684;23.252;2022-10-31T13:31:09;94853.09;;;23.48;38.71
11339;BME280;5724;42.684;23.252;2022-10-31T13:33:47;94849.59;;;23.24;39.32
11339;BME280;5724;42.684;23.252;2022-10-31T13:36:24;94842.09;;;23.21;39.01
11339;BME280;5724;42.684;23.252;2022-10-31T13:46:37;94854.13;;;22.94;38.78
11339;BME280;5724;42.684;23.252;2022-10-31T13:49:04;94850.31;;;22.84;39.80
11339;BME280;5724;42.684;23.252;2022-10-31T13:51:32;94847.50;;;22.88;39.69
11339;BME280;5724;42.684;23.252;2022-10-31T13:54:34;94851.88;;;22.85;39.57
11339;BME280;5724;42.684;23.252;2022-10-31T13:57:00;94844.47;;;22.75;39.71
11339;BME280;5724;42.684;23.252;2022-10-31T13:59:27;94860.25;;;22.85;39.98
11339;BME280;5724;42.684;23.252;2022-10-31T14:01:56;94854.78;;;22.78;39.57
11339;BME280;5724;42.684;23.252;2022-10-31T14:04:24;94860.59;;;22.64;39.48
11339;BME280;5724;42.684;23.252;2022-10-31T14:07:05;94859.81;;;22.64;39.32
11339;BME280;5724;42.684;23.252;2022-10-31T14:09:32;94865.38;;;22.64;39.70
11339;BME280;5724;42.684;23.252;2022-10-31T14:12:06;94859.75;;;22.67;39.47
11339;BME280;5724;42.684;23.252;2022-10-31T14:14:35;94856.56;;;22.69;39.80
11339;BME280;5724;42.684;23.252;2022-10-31T14:17:05;94863.03;;;22.62;39.70
11339;BME280;5724;42.684;23.252;2022-10-31T14:19:31;94864.84;;;22.49;39.78
11339;BME280;5724;42.684;23.252;2022-10-31T14:21:56;94871.34;;;22.39;39.84
11339;BME280;5724;42.684;23.252;2022-10-31T14:29:44;94873.78;;;22.37;39.42
11339;BME280;5724;42.684;23.252;2022-10-31T14:34:42;94866.63;;;21.82;39.13
11339;BME280;5724;42.684;23.252;2022-10-31T14:45:28;94857.00;;;21.22;40.04
11339;BME280;5724;42.684;23.252;2022-10-31T14:50:54;94863.28;;;20.92;40.70
11339;BME280;5724;42.684;23.252;2022-10-31T14:55:54;94863.56;;;20.63;41.52
11339;BME280;5724;42.684;23.252;2022-10-31T14:58:35;94869.59;;;20.54;41.58
11339;BME280;5724;42.684;23.252;2022-10-31T15:01:02;94862.53;;;20.46;41.64
11339;BME280;5724;42.684;23.252;2022-10-31T15:03:35;94862.19;;;20.34;41.85
11339;BME280;5724;42.684;23.252;2022-10-31T15:06:05;94860.63;;;20.33;41.62
11339;BME280;5724;42.684;23.252;2022-10-31T15:08:40;94859.94;;;20.21;42.13
11339;BME280;5724;42.684;23.252;2022-10-31T15:11:11;94859.97;;;20.14;42.71
11339;BME280;5724;42.684;23.252;2022-10-31T15:13:48;94856.88;;;20.09;42.64
11339;BME280;5724;42.684;23.252;2022-10-31T15:16:35;94860.91;;;19.93;43.85
11339;BME280;5724;42.684;23.252;2022-10-31T15:19:04;94861.41;;;19.81;44.19
11339;BME280;5724;42.684;23.252;2022-10-31T15:21:31;94870.19;;;19.69;44.34
11339;BME280;5724;42.684;23.252;2022-10-31T15:23:59;94867.41;;;19.69;44.68